Kennedy, New York
Current Conditions -  °F | °C
As of 8:15 PM on Friday 28 Nov 2014 (Local Time) from KJHW Reporting Station
Few Clouds Few Clouds  
Wind Chill:   Ceiling: Unl
Heat Index: 18°   Visibility: 10mi
Dew Point: 12°   Wind: 6mph
Humidity: 79%   Direction: 170°S
Pressure: 30.15"   Gusts: NA
Location:  42.16°N, 79.1°W
Report Text: KJHW 290115Z 17005KT 10SM FEW033 M08/M11 A3015 RMK AO1
Loading
Personal Weather Stations






























Interactive Weather Map New forecast layout! Learn more

10-Day Weather Forecast

Advertisements
Track Severe Weather on mobile